createdAt,value
2022-09-26T00:01:10.762Z,57.86
2022-09-26T00:04:23.031Z,58.01
2022-09-26T00:07:25.395Z,57.91
2022-09-26T00:10:26.949Z,58.08
2022-09-26T00:13:30.324Z,57.57
2022-09-26T00:16:32.015Z,58.06
2022-09-26T00:19:33.587Z,58.01
2022-09-26T00:22:35.179Z,58.02
2022-09-26T00:25:36.691Z,57.85
2022-09-26T00:28:38.508Z,57.83
2022-09-26T00:31:44.231Z,58.05
2022-09-26T00:34:45.752Z,57.97
2022-09-26T00:37:47.271Z,58.04
2022-09-26T00:40:50.478Z,58.09
2022-09-26T00:43:54.345Z,58.09
2022-09-26T00:46:55.896Z,58.16
2022-09-26T00:50:06.194Z,57.93
2022-09-26T00:53:15.014Z,57.96
2022-09-26T00:56:35.306Z,58.11
2022-09-26T00:59:41.860Z,58.13
2022-09-26T01:02:44.910Z,58.21
2022-09-26T01:05:47.350Z,58.28
2022-09-26T01:08:57.432Z,58.00
2022-09-26T01:12:02.144Z,58.22
2022-09-26T01:15:06.357Z,58.08
2022-09-26T01:18:07.924Z,58.09
2022-09-26T01:21:27.625Z,58.22
2022-09-26T01:24:50.142Z,58.01
2022-09-26T01:28:22.793Z,58.09
2022-09-26T01:31:30.452Z,58.44
2022-09-26T01:34:57.338Z,58.40
2022-09-26T01:38:01.868Z,58.34
2022-09-26T01:41:12.922Z,58.26
2022-09-26T01:44:39.018Z,58.20
2022-09-26T01:47:44.318Z,58.25
2022-09-26T01:50:51.241Z,58.35
2022-09-26T01:54:03.077Z,58.22
2022-09-26T01:57:08.965Z,58.15
2022-09-26T02:00:12.730Z,58.20
2022-09-26T02:03:19.416Z,58.38
2022-09-26T02:06:58.073Z,58.47
2022-09-26T02:10:09.770Z,58.22
2022-09-26T02:13:19.515Z,58.38
2022-09-26T02:16:51.810Z,58.33
2022-09-26T02:19:59.092Z,58.33
2022-09-26T02:23:03.988Z,58.38
2022-09-26T02:26:05.943Z,58.33
2022-09-26T02:29:08.615Z,58.38
2022-09-26T02:32:19.090Z,58.28
2022-09-26T02:35:39.118Z,58.41
2022-09-26T02:38:40.680Z,58.60
2022-09-26T02:42:11.353Z,58.45
2022-09-26T02:45:44.328Z,58.33
2022-09-26T02:49:16.877Z,58.51
2022-09-26T02:52:21.940Z,58.37
2022-09-26T02:55:49.549Z,58.46
2022-09-26T02:59:09.237Z,58.42
2022-09-26T03:02:19.717Z,58.54
2022-09-26T03:05:25.195Z,58.55
2022-09-26T03:08:32.073Z,58.34
2022-09-26T03:11:35.994Z,58.42
2022-09-26T03:14:41.746Z,58.56
2022-09-26T03:17:49.843Z,58.52
2022-09-26T03:20:54.203Z,58.38
2022-09-26T03:23:58.079Z,58.47
2022-09-26T03:27:00.637Z,58.59
2022-09-26T03:30:02.228Z,58.47
2022-09-26T03:33:03.956Z,58.39
2022-09-26T03:36:09.438Z,58.61
2022-09-26T03:39:11.336Z,58.60
2022-09-26T03:42:14.271Z,58.42
2022-09-26T03:45:15.877Z,58.50
2022-09-26T03:48:17.464Z,58.62
2022-09-26T03:51:19.495Z,58.63
2022-09-26T03:54:21.056Z,58.59
2022-09-26T03:57:22.804Z,58.47
2022-09-26T04:00:24.893Z,58.53
2022-09-26T04:03:27.541Z,58.58
2022-09-26T04:06:29.089Z,58.56
2022-09-26T04:09:31.130Z,58.51
2022-09-26T04:12:32.641Z,58.62
2022-09-26T04:15:34.154Z,58.57
2022-09-26T04:18:36.366Z,58.63
2022-09-26T04:21:40.145Z,58.33
2022-09-26T04:24:41.725Z,58.47
2022-09-26T04:27:43.245Z,58.54
2022-09-26T04:30:44.960Z,58.62
2022-09-26T04:33:46.493Z,58.62
2022-09-26T04:36:48.502Z,58.55
2022-09-26T04:39:50.040Z,58.54
2022-09-26T04:42:51.582Z,58.64
2022-09-26T04:45:53.171Z,58.73
2022-09-26T04:48:56.996Z,58.63
2022-09-26T04:51:58.533Z,58.47
2022-09-26T04:55:00.045Z,58.58
2022-09-26T04:58:02.543Z,58.57
2022-09-26T05:01:06.866Z,58.55
2022-09-26T05:04:10.110Z,58.51
2022-09-26T05:07:11.840Z,58.41
2022-09-26T05:10:13.375Z,58.55
2022-09-26T05:13:14.893Z,59.04
2022-09-26T05:16:17.194Z,58.81
2022-09-26T05:19:18.958Z,58.76
2022-09-26T05:22:20.503Z,58.46
2022-09-26T05:25:40.713Z,58.82
2022-09-26T05:28:42.262Z,58.71
2022-09-26T05:31:43.910Z,58.71
2022-09-26T05:34:46.510Z,58.83
2022-09-26T05:37:48.036Z,58.71
2022-09-26T05:40:56.670Z,58.82
2022-09-26T05:43:58.965Z,58.79
2022-09-26T05:47:00.611Z,58.79
2022-09-26T05:50:10.044Z,58.89
2022-09-26T05:53:11.898Z,58.67
2022-09-26T05:56:18.791Z,58.90
2022-09-26T05:59:21.089Z,58.85
2022-09-26T06:02:22.681Z,58.80
2022-09-26T06:05:25.482Z,58.84
2022-09-26T06:08:28.265Z,58.98
2022-09-26T06:11:31.147Z,58.79
2022-09-26T06:14:32.969Z,58.91
2022-09-26T06:17:34.484Z,58.85
2022-09-26T06:20:36.105Z,58.91
2022-09-26T06:23:38.893Z,58.88
2022-09-26T06:26:40.448Z,59.03
2022-09-26T06:29:42.030Z,58.85
2022-09-26T06:32:45.477Z,58.96
2022-09-26T06:35:47.401Z,58.93
2022-09-26T06:38:49.725Z,58.96
2022-09-26T06:41:51.338Z,58.96
2022-09-26T06:44:53.058Z,59.04
2022-09-26T06:47:54.806Z,59.02
2022-09-26T06:51:00.193Z,59.10
2022-09-26T06:54:01.807Z,59.07
2022-09-26T06:57:03.472Z,59.16
2022-09-26T07:00:05.415Z,59.10
2022-09-26T07:03:08.338Z,59.16
2022-09-26T07:06:09.913Z,58.94
2022-09-26T07:09:12.658Z,59.03
2022-09-26T07:12:15.991Z,59.06
2022-09-26T07:15:19.610Z,59.11
2022-09-26T07:18:21.147Z,59.10
2022-09-26T07:21:22.955Z,59.17
2022-09-26T07:24:24.588Z,59.08
2022-09-26T07:27:26.443Z,59.16
2022-09-26T07:30:28.528Z,59.16
2022-09-26T07:33:30.241Z,59.12
2022-09-26T07:36:31.965Z,59.03
2022-09-26T07:39:33.890Z,59.18
2022-09-26T07:42:38.471Z,59.19
2022-09-26T07:45:58.663Z,59.11
2022-09-26T07:49:18.783Z,59.12
2022-09-26T07:52:22.574Z,59.17
2022-09-26T07:55:28.325Z,59.07
2022-09-26T07:58:29.833Z,59.06
2022-09-26T08:01:32.168Z,59.13
2022-09-26T08:04:33.827Z,59.02
2022-09-26T08:07:35.632Z,59.12
2022-09-26T08:10:37.324Z,59.04
2022-09-26T08:13:38.881Z,59.10
2022-09-26T08:16:41.750Z,59.12
2022-09-26T08:19:43.601Z,58.97
2022-09-26T08:22:45.125Z,58.99
2022-09-26T08:25:46.632Z,59.02
2022-09-26T08:28:48.149Z,58.91
2022-09-26T08:31:50.334Z,58.96
2022-09-26T08:34:52.626Z,58.96
2022-09-26T08:37:54.181Z,58.99
2022-09-26T08:41:32.491Z,58.93
2022-09-26T08:44:55.980Z,58.95
2022-09-26T08:48:14.789Z,58.90
2022-09-26T08:51:40.689Z,59.00
2022-09-26T08:54:45.130Z,58.92
2022-09-26T08:57:52.739Z,58.90
2022-09-26T09:01:05.177Z,58.99
2022-09-26T09:04:16.655Z,58.94
2022-09-26T09:07:23.649Z,58.99
2022-09-26T09:10:44.849Z,59.00
2022-09-26T09:14:08.244Z,59.08
2022-09-26T09:17:32.212Z,58.91
2022-09-26T09:20:45.998Z,58.91
2022-09-26T09:23:53.289Z,58.94
2022-09-26T09:30:31.299Z,58.90
2022-09-26T09:33:39.358Z,58.91
2022-09-26T09:36:45.005Z,58.84
2022-09-26T09:39:49.129Z,58.93
2022-09-26T09:43:01.649Z,58.75
2022-09-26T09:46:29.326Z,58.84
2022-09-26T09:49:31.040Z,58.99
2022-09-26T09:52:57.317Z,58.95
2022-09-26T09:56:11.673Z,58.98
2022-09-26T09:59:58.150Z,58.92
2022-09-26T10:03:37.877Z,58.89
2022-09-26T10:06:46.648Z,58.86
2022-09-26T10:09:51.929Z,58.84
2022-09-26T10:12:54.555Z,58.98
2022-09-26T10:16:01.729Z,58.91
2022-09-26T10:19:04.304Z,58.98
2022-09-26T10:22:15.362Z,58.88
2022-09-26T10:25:21.561Z,59.04
2022-09-26T10:28:30.136Z,59.35
2022-09-26T10:31:42.947Z,59.60
2022-09-26T10:35:03.960Z,59.27
2022-09-26T10:38:20.895Z,59.40
2022-09-26T10:41:25.177Z,59.37
2022-09-26T10:44:35.153Z,59.21
2022-09-26T10:47:37.742Z,58.75
2022-09-26T10:50:52.097Z,58.90
2022-09-26T10:54:04.405Z,58.85
2022-09-26T10:57:09.536Z,59.02
2022-09-26T11:00:33.473Z,59.15
2022-09-26T11:03:44.340Z,58.94
2022-09-26T11:06:46.016Z,58.98
2022-09-26T11:09:47.868Z,59.14
2022-09-26T11:13:03.446Z,59.17
2022-09-26T11:16:05.026Z,59.02
2022-09-26T11:19:17.281Z,59.12
2022-09-26T11:22:26.568Z,59.08
2022-09-26T11:25:32.873Z,59.00
2022-09-26T11:28:45.004Z,59.07
2022-09-26T11:31:46.944Z,59.03
2022-09-26T11:34:48.490Z,59.07
2022-09-26T11:38:27.076Z,59.07
2022-09-26T11:41:56.283Z,58.90
2022-09-26T11:45:00.540Z,58.95
2022-09-26T11:48:23.516Z,58.84
2022-09-26T11:51:59.126Z,58.87
2022-09-26T11:55:24.316Z,59.05
2022-09-26T11:58:51.408Z,59.00
2022-09-26T12:02:15.787Z,58.96
2022-09-26T12:05:27.404Z,59.05
2022-09-26T12:08:30.212Z,59.02
2022-09-26T12:11:58.107Z,59.05
2022-09-26T12:15:08.840Z,59.00
2022-09-26T12:18:13.257Z,58.96
2022-09-26T12:21:23.549Z,59.01
2022-09-26T12:24:40.223Z,58.99
2022-09-26T12:27:49.933Z,58.93
2022-09-26T12:31:01.486Z,59.08
2022-09-26T12:34:13.795Z,59.06
2022-09-26T12:37:46.453Z,59.22
2022-09-26T12:41:02.344Z,59.17
2022-09-26T12:44:31.333Z,59.12
2022-09-26T12:47:48.959Z,59.30
2022-09-26T12:51:09.153Z,59.24
2022-09-26T12:54:35.777Z,59.33
2022-09-26T12:57:58.509Z,59.30
2022-09-26T13:01:24.787Z,59.39
2022-09-26T13:04:48.033Z,59.30
2022-09-26T13:08:11.043Z,59.32
2022-09-26T13:11:32.390Z,59.25
2022-09-26T13:15:06.725Z,59.37
2022-09-26T13:18:15.581Z,59.46
2022-09-26T13:21:28.549Z,59.41
2022-09-26T13:25:02.806Z,59.51
2022-09-26T13:28:17.907Z,59.55
2022-09-26T13:31:32.479Z,59.50
2022-09-26T13:34:40.944Z,59.49
2022-09-26T13:37:42.522Z,59.51
2022-09-26T13:40:57.260Z,59.54
2022-09-26T13:44:06.310Z,59.60
2022-09-26T13:47:35.294Z,59.66
2022-09-26T13:50:55.647Z,59.67
2022-09-26T13:54:21.439Z,59.62
2022-09-26T13:57:31.822Z,59.65
2022-09-26T14:00:48.928Z,59.89
2022-09-26T14:04:17.856Z,59.74
2022-09-26T14:07:44.395Z,59.42
2022-09-26T14:10:53.909Z,59.70
2022-09-26T14:14:18.096Z,59.75
2022-09-26T14:17:41.478Z,59.80
2022-09-26T14:20:55.092Z,59.81
2022-09-26T14:24:25.932Z,59.74
2022-09-26T14:27:36.933Z,59.82
2022-09-26T14:30:38.546Z,59.91
2022-09-26T14:33:40.563Z,59.92
2022-09-26T14:36:44.299Z,60.05
2022-09-26T14:39:46.555Z,59.98
2022-09-26T14:42:55.236Z,59.94
2022-09-26T14:46:05.537Z,59.92
2022-09-26T14:49:16.706Z,60.11
2022-09-26T14:52:20.527Z,60.09
2022-09-26T14:55:22.282Z,60.14
2022-09-26T14:58:50.731Z,60.01
2022-09-26T15:02:15.351Z,59.96
2022-09-26T15:05:23.985Z,60.07
2022-09-26T15:08:28.946Z,60.04
2022-09-26T15:11:44.129Z,60.02
2022-09-26T15:15:20.057Z,60.04
2022-09-26T15:18:27.390Z,60.08
2022-09-26T15:21:50.296Z,59.99
2022-09-26T15:24:55.852Z,60.16
2022-09-26T15:27:58.580Z,60.19
2022-09-26T15:31:21.873Z,60.16
2022-09-26T15:34:31.996Z,60.11
2022-09-26T15:37:36.140Z,60.19
2022-09-26T15:40:37.851Z,60.17
2022-09-26T15:43:39.484Z,60.23
2022-09-26T15:46:41.663Z,60.24
2022-09-26T15:49:43.428Z,60.17
2022-09-26T15:52:55.288Z,60.27
2022-09-26T15:56:05.760Z,60.09
2022-09-26T15:59:17.853Z,60.29
2022-09-26T16:02:23.785Z,60.38
2022-09-26T16:05:27.095Z,60.33
2022-09-26T16:08:34.431Z,60.37
2022-09-26T16:11:47.676Z,60.33
2022-09-26T16:15:03.010Z,60.39
2022-09-26T16:18:04.701Z,60.40
2022-09-26T16:21:23.186Z,60.43
2022-09-26T16:24:36.296Z,60.38
2022-09-26T16:27:37.853Z,60.43
2022-09-26T16:30:45.791Z,60.35
2022-09-26T16:33:52.273Z,60.40
2022-09-26T16:36:54.317Z,60.33
2022-09-26T16:39:59.102Z,60.42
2022-09-26T16:43:03.504Z,60.52
2022-09-26T16:46:07.754Z,60.48
2022-09-26T16:49:29.505Z,60.48
2022-09-26T16:52:36.413Z,60.46
2022-09-26T16:55:38.129Z,60.53
2022-09-26T16:58:46.777Z,60.56
2022-09-26T17:01:55.683Z,60.47
2022-09-26T17:04:57.339Z,60.57
2022-09-26T17:07:58.933Z,60.59
2022-09-26T17:11:02.593Z,60.51
2022-09-26T17:14:04.441Z,60.54
2022-09-26T17:17:10.789Z,60.53
2022-09-26T17:20:14.508Z,60.57
2022-09-26T17:23:38.760Z,60.61
2022-09-26T17:26:38.811Z,60.54
2022-09-26T17:29:44.521Z,60.81
2022-09-26T17:32:52.421Z,60.50
2022-09-26T17:35:54.317Z,60.38
2022-09-26T17:39:00.205Z,60.49
2022-09-26T17:42:03.477Z,60.46
2022-09-26T17:45:06.237Z,60.41
2022-09-26T17:48:14.865Z,60.46
2022-09-26T17:51:16.461Z,60.53
2022-09-26T17:54:20.436Z,60.55
2022-09-26T17:57:25.634Z,60.53
2022-09-26T18:00:32.259Z,60.48
2022-09-26T18:03:36.451Z,60.54
2022-09-26T18:06:38.358Z,60.61
2022-09-26T18:09:41.036Z,60.61
2022-09-26T18:12:44.574Z,60.51
2022-09-26T18:15:46.137Z,60.53
2022-09-26T18:18:48.083Z,60.46
2022-09-26T18:21:54.582Z,60.39
2022-09-26T18:25:04.654Z,60.47
2022-09-26T18:28:11.087Z,60.43
2022-09-26T18:31:12.915Z,60.50
2022-09-26T18:34:19.911Z,60.46
2022-09-26T18:37:21.549Z,60.53
2022-09-26T18:40:24.899Z,60.43
2022-09-26T18:43:37.767Z,60.39
2022-09-26T18:46:44.685Z,60.46
2022-09-26T18:49:47.040Z,60.85
2022-09-26T18:52:48.993Z,60.65
2022-09-26T18:56:09.461Z,60.64
2022-09-26T18:59:11.281Z,60.61
2022-09-26T19:02:23.297Z,60.44
2022-09-26T19:05:25.753Z,60.48
2022-09-26T19:08:28.867Z,60.48
2022-09-26T19:11:35.250Z,60.41
2022-09-26T19:14:36.892Z,60.51
2022-09-26T19:17:38.727Z,60.47
2022-09-26T19:20:40.840Z,60.46
2022-09-26T19:23:42.750Z,60.46
2022-09-26T19:26:44.389Z,60.49
2022-09-26T19:30:04.747Z,60.53
2022-09-26T19:33:06.388Z,60.42
2022-09-26T19:36:10.403Z,60.71
2022-09-26T19:39:15.870Z,60.44
2022-09-26T19:42:18.377Z,60.59
2022-09-26T19:45:20.336Z,60.56
2022-09-26T19:48:23.336Z,60.42
2022-09-26T19:51:25.082Z,60.37
2022-09-26T19:54:27.104Z,60.48
2022-09-26T19:57:28.654Z,60.48
2022-09-26T20:00:31.185Z,60.23
2022-09-26T20:03:39.884Z,60.45
2022-09-26T20:06:41.621Z,60.36
2022-09-26T20:09:43.491Z,60.44
2022-09-26T20:12:46.432Z,60.36
2022-09-26T20:15:48.593Z,60.32
2022-09-26T20:18:51.699Z,60.33
2022-09-26T20:21:53.297Z,60.43
2022-09-26T20:24:55.788Z,60.47
2022-09-26T20:27:58.736Z,60.36
2022-09-26T20:31:00.499Z,60.40
2022-09-26T20:34:02.121Z,60.50
2022-09-26T20:37:03.689Z,60.35
2022-09-26T20:40:27.184Z,60.47
2022-09-26T20:43:36.061Z,60.33
2022-09-26T20:46:43.275Z,60.35
2022-09-26T20:49:59.292Z,60.44
2022-09-26T20:53:01.145Z,60.49
2022-09-26T20:56:03.936Z,60.32
2022-09-26T20:59:06.695Z,60.37
2022-09-26T21:02:37.138Z,60.33
2022-09-26T21:05:39.272Z,60.29
2022-09-26T21:08:41.370Z,60.35
2022-09-26T21:11:43.152Z,60.23
2022-09-26T21:14:44.888Z,60.13
2022-09-26T21:17:47.418Z,60.26
2022-09-26T21:20:49.326Z,60.33
2022-09-26T21:23:51.804Z,60.34
2022-09-26T21:26:53.368Z,60.21
2022-09-26T21:29:54.924Z,60.29
2022-09-26T21:32:58.873Z,60.40
2022-09-26T21:36:00.577Z,60.38
2022-09-26T21:39:02.381Z,60.28
2022-09-26T21:42:05.373Z,60.21
2022-09-26T21:45:09.924Z,60.24
2022-09-26T21:48:13.441Z,60.30
2022-09-26T21:51:15.350Z,60.33
2022-09-26T21:54:25.002Z,60.18
2022-09-26T21:57:30.423Z,60.30
2022-09-26T22:00:31.992Z,60.13
2022-09-26T22:03:33.788Z,60.33
2022-09-26T22:06:35.346Z,60.24
2022-09-26T22:09:36.925Z,60.20
2022-09-26T22:12:38.443Z,60.16
2022-09-26T22:15:40.011Z,60.42
2022-09-26T22:18:41.684Z,60.25
2022-09-26T22:21:43.292Z,60.32
2022-09-26T22:24:44.917Z,60.15
2022-09-26T22:27:46.475Z,60.34
2022-09-26T22:30:49.427Z,60.53
2022-09-26T22:33:51.170Z,60.34
2022-09-26T22:36:52.935Z,60.55
2022-09-26T22:39:54.542Z,60.51
2022-09-26T22:42:56.096Z,60.60
2022-09-26T22:46:08.295Z,60.45
2022-09-26T22:49:09.968Z,60.73
2022-09-26T22:52:11.607Z,60.57
2022-09-26T22:55:13.596Z,60.66
2022-09-26T22:58:15.128Z,60.69
2022-09-26T23:01:25.374Z,60.69
2022-09-26T23:04:47.004Z,60.81
2022-09-26T23:07:48.827Z,60.94
2022-09-26T23:10:51.937Z,60.85
2022-09-26T23:13:53.764Z,61.04
2022-09-26T23:16:55.335Z,60.94
2022-09-26T23:19:56.908Z,60.94
2022-09-26T23:22:58.460Z,60.93
2022-09-26T23:26:00.317Z,60.95
2022-09-26T23:29:01.924Z,60.98
2022-09-26T23:32:03.693Z,61.10
2022-09-26T23:35:05.755Z,61.00
2022-09-26T23:38:07.668Z,61.05
2022-09-26T23:41:11.147Z,61.10
2022-09-26T23:44:12.707Z,61.17
2022-09-26T23:47:14.251Z,61.20
2022-09-26T23:50:16.346Z,61.12
2022-09-26T23:53:18.226Z,61.09
2022-09-26T23:56:20.236Z,61.11
2022-09-26T23:59:21.756Z,61.13
